EVV weather

Evansville Regional Airport
Evansville, Indiana, United States

Public forecast

Using degrees Fahrenheit for public forecast. Weather courtesy of forecast.io.

Current aviation weather report (METAR) for Evansville Regional Airport

Retrieved 2019/12/10 01:08 UTC (45 minutes ago):

KEVV 100108Z 26008G15KT 9SM BKN018 BKN060 OVC075 14/11 A2974 RMK AO2 T01440111

Aviation forecast (TAF) for Evansville Regional Airport

Retrieved 2019-12-10 00:22 UTC (2 hours ago):

TAF KEVV 092320Z 1000/1024 26012KT P6SM VCSH OVC007 FM100100 27013KT P6SM VCSH SCT010 OVC014 FM100300 30015KT P6SM SCT011 OVC015 FM100400 30015KT P6SM SCT015 OVC080 FM101200 32011KT P6SM SCT021 OVC120 FM102100 30006KT P6SM SCT040 OVC180